sensor_id;sensor_type;location;lat;lon;timestamp;P1;durP1;ratioP1;P2;durP2;ratioP2
30966;SDS011;17649;51.836;8.330;2022-12-20T00:02:34;9.30;;;6.00;;
30966;SDS011;17649;51.836;8.330;2022-12-20T00:05:20;11.13;;;6.13;;
30966;SDS011;17649;51.836;8.330;2022-12-20T00:08:43;8.27;;;5.75;;
30966;SDS011;17649;51.836;8.330;2022-12-20T00:11:55;10.68;;;6.18;;
30966;SDS011;17649;51.836;8.330;2022-12-20T00:15:02;8.88;;;5.47;;
30966;SDS011;17649;51.836;8.330;2022-12-20T00:18:20;9.68;;;5.97;;
30966;SDS011;17649;51.836;8.330;2022-12-20T00:21:24;8.97;;;5.50;;
30966;SDS011;17649;51.836;8.330;2022-12-20T00:24:29;8.32;;;5.38;;
30966;SDS011;17649;51.836;8.330;2022-12-20T00:27:32;10.73;;;6.00;;
30966;SDS011;17649;51.836;8.330;2022-12-20T00:30:44;9.60;;;5.00;;
30966;SDS011;17649;51.836;8.330;2022-12-20T00:33:53;7.38;;;5.18;;
30966;SDS011;17649;51.836;8.330;2022-12-20T00:36:55;7.90;;;4.90;;
30966;SDS011;17649;51.836;8.330;2022-12-20T00:40:07;7.50;;;4.90;;
30966;SDS011;17649;51.836;8.330;2022-12-20T00:43:43;11.98;;;5.28;;
30966;SDS011;17649;51.836;8.330;2022-12-20T00:46:59;7.90;;;4.88;;
30966;SDS011;17649;51.836;8.330;2022-12-20T00:50:10;9.25;;;5.28;;
30966;SDS011;17649;51.836;8.330;2022-12-20T00:57:06;10.55;;;4.85;;
30966;SDS011;17649;51.836;8.330;2022-12-20T01:00:07;9.20;;;5.07;;
30966;SDS011;17649;51.836;8.330;2022-12-20T01:03:29;7.37;;;5.03;;
30966;SDS011;17649;51.836;8.330;2022-12-20T01:06:35;7.87;;;4.80;;
30966;SDS011;17649;51.836;8.330;2022-12-20T01:09:45;6.78;;;4.25;;
30966;SDS011;17649;51.836;8.330;2022-12-20T01:13:10;7.07;;;4.60;;
30966;SDS011;17649;51.836;8.330;2022-12-20T01:16:20;6.30;;;4.30;;
30966;SDS011;17649;51.836;8.330;2022-12-20T01:19:40;6.75;;;4.25;;
30966;SDS011;17649;51.836;8.330;2022-12-20T01:23:04;8.65;;;4.55;;
30966;SDS011;17649;51.836;8.330;2022-12-20T01:26:05;6.60;;;4.13;;
30966;SDS011;17649;51.836;8.330;2022-12-20T01:29:13;6.80;;;4.30;;
30966;SDS011;17649;51.836;8.330;2022-12-20T01:32:41;10.63;;;4.18;;
30966;SDS011;17649;51.836;8.330;2022-12-20T01:39:26;7.70;;;4.07;;
30966;SDS011;17649;51.836;8.330;2022-12-20T01:42:57;8.10;;;4.37;;
30966;SDS011;17649;51.836;8.330;2022-12-20T01:46:28;10.05;;;4.80;;
30966;SDS011;17649;51.836;8.330;2022-12-20T01:49:50;10.90;;;4.68;;
30966;SDS011;17649;51.836;8.330;2022-12-20T01:52:52;8.50;;;5.05;;
30966;SDS011;17649;51.836;8.330;2022-12-20T01:56:02;8.03;;;4.83;;
30966;SDS011;17649;51.836;8.330;2022-12-20T01:59:32;9.43;;;4.10;;
30966;SDS011;17649;51.836;8.330;2022-12-20T02:02:49;5.97;;;4.00;;
30966;SDS011;17649;51.836;8.330;2022-12-20T02:06:24;5.55;;;3.75;;
30966;SDS011;17649;51.836;8.330;2022-12-20T02:09:41;9.02;;;4.25;;
30966;SDS011;17649;51.836;8.330;2022-12-20T02:31:04;6.05;;;3.75;;
30966;SDS011;17649;51.836;8.330;2022-12-20T02:34:11;7.55;;;4.13;;
30966;SDS011;17649;51.836;8.330;2022-12-20T02:45:39;6.30;;;4.10;;
30966;SDS011;17649;51.836;8.330;2022-12-20T02:49:05;6.03;;;3.95;;
30966;SDS011;17649;51.836;8.330;2022-12-20T02:52:23;7.35;;;3.80;;
30966;SDS011;17649;51.836;8.330;2022-12-20T02:55:32;8.77;;;4.05;;
30966;SDS011;17649;51.836;8.330;2022-12-20T02:59:06;6.43;;;3.50;;
30966;SDS011;17649;51.836;8.330;2022-12-20T03:02:20;7.45;;;4.15;;
30966;SDS011;17649;51.836;8.330;2022-12-20T03:05:25;6.03;;;3.78;;
30966;SDS011;17649;51.836;8.330;2022-12-20T03:08:42;5.65;;;3.67;;
30966;SDS011;17649;51.836;8.330;2022-12-20T03:11:47;9.13;;;3.60;;
30966;SDS011;17649;51.836;8.330;2022-12-20T03:15:03;5.57;;;3.80;;
30966;SDS011;17649;51.836;8.330;2022-12-20T03:18:13;5.90;;;3.60;;
30966;SDS011;17649;51.836;8.330;2022-12-20T03:21:40;7.28;;;4.10;;
30966;SDS011;17649;51.836;8.330;2022-12-20T03:24:53;7.72;;;3.85;;
30966;SDS011;17649;51.836;8.330;2022-12-20T03:31:33;4.75;;;3.58;;
30966;SDS011;17649;51.836;8.330;2022-12-20T03:34:35;7.05;;;3.80;;
30966;SDS011;17649;51.836;8.330;2022-12-20T03:38:02;6.40;;;4.30;;
30966;SDS011;17649;51.836;8.330;2022-12-20T03:41:35;8.90;;;3.93;;
30966;SDS011;17649;51.836;8.330;2022-12-20T03:45:04;7.53;;;3.50;;
30966;SDS011;17649;51.836;8.330;2022-12-20T03:48:23;6.50;;;3.50;;
30966;SDS011;17649;51.836;8.330;2022-12-20T03:51:23;5.57;;;4.28;;
30966;SDS011;17649;51.836;8.330;2022-12-20T03:54:35;7.75;;;3.83;;
30966;SDS011;17649;51.836;8.330;2022-12-20T03:57:38;6.33;;;3.47;;
30966;SDS011;17649;51.836;8.330;2022-12-20T04:00:45;4.88;;;3.28;;
30966;SDS011;17649;51.836;8.330;2022-12-20T04:03:52;6.30;;;3.28;;
30966;SDS011;17649;51.836;8.330;2022-12-20T04:06:52;6.85;;;3.70;;
30966;SDS011;17649;51.836;8.330;2022-12-20T04:10:00;7.50;;;3.70;;
30966;SDS011;17649;51.836;8.330;2022-12-20T04:13:07;7.27;;;4.43;;
30966;SDS011;17649;51.836;8.330;2022-12-20T04:16:16;5.85;;;3.67;;
30966;SDS011;17649;51.836;8.330;2022-12-20T04:19:27;7.03;;;4.00;;
30966;SDS011;17649;51.836;8.330;2022-12-20T04:22:28;6.57;;;4.33;;
30966;SDS011;17649;51.836;8.330;2022-12-20T04:25:29;7.30;;;4.30;;
30966;SDS011;17649;51.836;8.330;2022-12-20T04:28:44;6.50;;;4.38;;
30966;SDS011;17649;51.836;8.330;2022-12-20T04:31:53;7.68;;;4.22;;
30966;SDS011;17649;51.836;8.330;2022-12-20T04:34:56;7.20;;;4.63;;
30966;SDS011;17649;51.836;8.330;2022-12-20T04:38:03;7.93;;;4.45;;
30966;SDS011;17649;51.836;8.330;2022-12-20T04:41:09;6.30;;;4.73;;
30966;SDS011;17649;51.836;8.330;2022-12-20T04:44:21;7.35;;;4.68;;
30966;SDS011;17649;51.836;8.330;2022-12-20T04:47:22;9.27;;;4.80;;
30966;SDS011;17649;51.836;8.330;2022-12-20T04:50:23;7.70;;;4.53;;
30966;SDS011;17649;51.836;8.330;2022-12-20T04:53:29;6.75;;;4.22;;
30966;SDS011;17649;51.836;8.330;2022-12-20T04:56:57;7.90;;;4.05;;
30966;SDS011;17649;51.836;8.330;2022-12-20T04:59:57;10.00;;;4.13;;
30966;SDS011;17649;51.836;8.330;2022-12-20T05:03:01;6.23;;;4.30;;
30966;SDS011;17649;51.836;8.330;2022-12-20T05:06:04;6.28;;;4.32;;
30966;SDS011;17649;51.836;8.330;2022-12-20T05:09:09;9.65;;;4.60;;
30966;SDS011;17649;51.836;8.330;2022-12-20T05:12:10;8.00;;;4.40;;
30966;SDS011;17649;51.836;8.330;2022-12-20T05:15:10;9.35;;;5.60;;
30966;SDS011;17649;51.836;8.330;2022-12-20T05:18:22;8.67;;;4.87;;
30966;SDS011;17649;51.836;8.330;2022-12-20T05:21:35;7.68;;;5.28;;
30966;SDS011;17649;51.836;8.330;2022-12-20T05:25:07;9.88;;;5.40;;
30966;SDS011;17649;51.836;8.330;2022-12-20T05:28:29;10.53;;;5.27;;
30966;SDS011;17649;51.836;8.330;2022-12-20T05:31:30;9.67;;;5.20;;
30966;SDS011;17649;51.836;8.330;2022-12-20T05:35:08;7.90;;;5.55;;
30966;SDS011;17649;51.836;8.330;2022-12-20T05:38:12;10.90;;;5.50;;
30966;SDS011;17649;51.836;8.330;2022-12-20T05:41:54;8.80;;;6.05;;
30966;SDS011;17649;51.836;8.330;2022-12-20T05:44:58;12.70;;;6.07;;
30966;SDS011;17649;51.836;8.330;2022-12-20T05:48:14;11.38;;;6.03;;
30966;SDS011;17649;51.836;8.330;2022-12-20T05:51:19;9.88;;;5.72;;
30966;SDS011;17649;51.836;8.330;2022-12-20T05:55:13;8.77;;;5.82;;
30966;SDS011;17649;51.836;8.330;2022-12-20T05:58:16;10.10;;;5.70;;
30966;SDS011;17649;51.836;8.330;2022-12-20T06:01:41;11.52;;;5.72;;
30966;SDS011;17649;51.836;8.330;2022-12-20T06:08:43;10.55;;;6.07;;
30966;SDS011;17649;51.836;8.330;2022-12-20T06:12:08;9.85;;;6.03;;
30966;SDS011;17649;51.836;8.330;2022-12-20T06:15:52;9.65;;;5.82;;
30966;SDS011;17649;51.836;8.330;2022-12-20T06:19:14;13.40;;;7.13;;
30966;SDS011;17649;51.836;8.330;2022-12-20T06:29:31;13.43;;;6.82;;
30966;SDS011;17649;51.836;8.330;2022-12-20T06:33:08;12.45;;;6.97;;
30966;SDS011;17649;51.836;8.330;2022-12-20T06:36:10;9.27;;;6.70;;
30966;SDS011;17649;51.836;8.330;2022-12-20T06:42:56;13.20;;;7.32;;
30966;SDS011;17649;51.836;8.330;2022-12-20T06:46:09;17.00;;;10.43;;
30966;SDS011;17649;51.836;8.330;2022-12-20T06:49:35;29.27;;;16.00;;
30966;SDS011;17649;51.836;8.330;2022-12-20T06:56:58;11.35;;;8.13;;
30966;SDS011;17649;51.836;8.330;2022-12-20T07:00:11;12.38;;;8.73;;
30966;SDS011;17649;51.836;8.330;2022-12-20T07:03:38;10.50;;;6.47;;
30966;SDS011;17649;51.836;8.330;2022-12-20T07:06:47;17.63;;;11.40;;
30966;SDS011;17649;51.836;8.330;2022-12-20T07:10:16;11.93;;;6.95;;
30966;SDS011;17649;51.836;8.330;2022-12-20T07:13:56;10.93;;;7.55;;
30966;SDS011;17649;51.836;8.330;2022-12-20T07:16:58;10.20;;;6.55;;
30966;SDS011;17649;51.836;8.330;2022-12-20T07:24:24;13.13;;;7.10;;
30966;SDS011;17649;51.836;8.330;2022-12-20T07:27:51;10.07;;;6.38;;
30966;SDS011;17649;51.836;8.330;2022-12-20T07:31:03;14.20;;;9.93;;
30966;SDS011;17649;51.836;8.330;2022-12-20T07:34:13;10.13;;;6.32;;
30966;SDS011;17649;51.836;8.330;2022-12-20T07:38:02;11.02;;;6.53;;
30966;SDS011;17649;51.836;8.330;2022-12-20T07:44:33;10.70;;;6.28;;
30966;SDS011;17649;51.836;8.330;2022-12-20T07:47:34;10.10;;;6.35;;
30966;SDS011;17649;51.836;8.330;2022-12-20T07:50:40;10.40;;;6.45;;
30966;SDS011;17649;51.836;8.330;2022-12-20T07:53:45;10.80;;;7.20;;
30966;SDS011;17649;51.836;8.330;2022-12-20T07:56:53;11.88;;;8.00;;
30966;SDS011;17649;51.836;8.330;2022-12-20T08:00:03;9.73;;;5.77;;
30966;SDS011;17649;51.836;8.330;2022-12-20T08:03:27;7.80;;;4.95;;
30966;SDS011;17649;51.836;8.330;2022-12-20T08:06:32;7.70;;;5.38;;
30966;SDS011;17649;51.836;8.330;2022-12-20T08:09:41;7.63;;;5.17;;
30966;SDS011;17649;51.836;8.330;2022-12-20T08:12:52;11.00;;;5.65;;
30966;SDS011;17649;51.836;8.330;2022-12-20T08:15:53;8.73;;;5.80;;
30966;SDS011;17649;51.836;8.330;2022-12-20T08:18:54;8.67;;;5.73;;
30966;SDS011;17649;51.836;8.330;2022-12-20T08:22:01;9.18;;;5.20;;
30966;SDS011;17649;51.836;8.330;2022-12-20T08:25:02;9.57;;;5.22;;
30966;SDS011;17649;51.836;8.330;2022-12-20T08:28:15;9.68;;;6.22;;
30966;SDS011;17649;51.836;8.330;2022-12-20T08:31:32;9.77;;;7.18;;
30966;SDS011;17649;51.836;8.330;2022-12-20T08:34:49;7.38;;;5.13;;
30966;SDS011;17649;51.836;8.330;2022-12-20T08:37:54;8.50;;;4.72;;
30966;SDS011;17649;51.836;8.330;2022-12-20T08:41:07;8.02;;;4.85;;
30966;SDS011;17649;51.836;8.330;2022-12-20T08:44:12;6.55;;;4.40;;
30966;SDS011;17649;51.836;8.330;2022-12-20T08:47:18;8.45;;;5.05;;
30966;SDS011;17649;51.836;8.330;2022-12-20T08:50:19;7.38;;;4.25;;
30966;SDS011;17649;51.836;8.330;2022-12-20T08:53:23;7.38;;;4.53;;
30966;SDS011;17649;51.836;8.330;2022-12-20T08:56:24;8.40;;;4.38;;
30966;SDS011;17649;51.836;8.330;2022-12-20T08:59:30;6.85;;;4.50;;
30966;SDS011;17649;51.836;8.330;2022-12-20T09:02:30;7.72;;;4.10;;
30966;SDS011;17649;51.836;8.330;2022-12-20T09:05:42;9.05;;;6.75;;
30966;SDS011;17649;51.836;8.330;2022-12-20T09:08:43;7.88;;;4.10;;
30966;SDS011;17649;51.836;8.330;2022-12-20T09:11:54;7.03;;;4.18;;
30966;SDS011;17649;51.836;8.330;2022-12-20T09:15:00;6.10;;;4.03;;
30966;SDS011;17649;51.836;8.330;2022-12-20T09:18:04;7.63;;;4.28;;
30966;SDS011;17649;51.836;8.330;2022-12-20T09:21:23;5.00;;;3.90;;
30966;SDS011;17649;51.836;8.330;2022-12-20T09:24:24;6.82;;;4.20;;
30966;SDS011;17649;51.836;8.330;2022-12-20T09:27:39;11.20;;;4.68;;
30966;SDS011;17649;51.836;8.330;2022-12-20T09:30:42;6.57;;;4.40;;
30966;SDS011;17649;51.836;8.330;2022-12-20T09:33:58;8.05;;;4.10;;
30966;SDS011;17649;51.836;8.330;2022-12-20T09:37:09;9.37;;;5.13;;
30966;SDS011;17649;51.836;8.330;2022-12-20T09:40:19;7.55;;;4.28;;
30966;SDS011;17649;51.836;8.330;2022-12-20T09:43:23;5.72;;;3.95;;
30966;SDS011;17649;51.836;8.330;2022-12-20T09:46:24;6.20;;;4.15;;
30966;SDS011;17649;51.836;8.330;2022-12-20T09:49:30;6.47;;;4.13;;
30966;SDS011;17649;51.836;8.330;2022-12-20T09:52:43;6.23;;;3.87;;
30966;SDS011;17649;51.836;8.330;2022-12-20T09:56:21;8.55;;;4.28;;
30966;SDS011;17649;51.836;8.330;2022-12-20T09:59:26;9.88;;;4.13;;
30966;SDS011;17649;51.836;8.330;2022-12-20T10:02:30;7.90;;;4.20;;
30966;SDS011;17649;51.836;8.330;2022-12-20T10:06:05;7.88;;;4.35;;
30966;SDS011;17649;51.836;8.330;2022-12-20T10:09:01;11.68;;;3.88;;
30966;SDS011;17649;51.836;8.330;2022-12-20T10:15:33;11.10;;;3.85;;
30966;SDS011;17649;51.836;8.330;2022-12-20T10:18:58;7.05;;;4.35;;
30966;SDS011;17649;51.836;8.330;2022-12-20T10:22:13;4.80;;;3.45;;
30966;SDS011;17649;51.836;8.330;2022-12-20T10:25:20;9.00;;;4.22;;
30966;SDS011;17649;51.836;8.330;2022-12-20T10:28:30;7.10;;;4.05;;
30966;SDS011;17649;51.836;8.330;2022-12-20T10:31:33;5.65;;;3.47;;
30966;SDS011;17649;51.836;8.330;2022-12-20T10:34:35;9.68;;;3.92;;
30966;SDS011;17649;51.836;8.330;2022-12-20T10:37:35;8.13;;;4.20;;
30966;SDS011;17649;51.836;8.330;2022-12-20T10:40:38;14.27;;;4.80;;
30966;SDS011;17649;51.836;8.330;2022-12-20T10:43:44;5.80;;;3.58;;
30966;SDS011;17649;51.836;8.330;2022-12-20T10:46:49;6.90;;;3.30;;
30966;SDS011;17649;51.836;8.330;2022-12-20T10:50:07;5.60;;;3.35;;
30966;SDS011;17649;51.836;8.330;2022-12-20T10:53:31;9.73;;;4.03;;
30966;SDS011;17649;51.836;8.330;2022-12-20T10:56:44;6.88;;;3.95;;
30966;SDS011;17649;51.836;8.330;2022-12-20T10:59:56;6.50;;;3.40;;
30966;SDS011;17649;51.836;8.330;2022-12-20T11:03:04;7.70;;;4.00;;
30966;SDS011;17649;51.836;8.330;2022-12-20T11:06:41;8.70;;;3.88;;
30966;SDS011;17649;51.836;8.330;2022-12-20T11:09:52;6.57;;;3.92;;
30966;SDS011;17649;51.836;8.330;2022-12-20T11:13:04;8.00;;;4.22;;
30966;SDS011;17649;51.836;8.330;2022-12-20T11:16:25;6.10;;;4.28;;
30966;SDS011;17649;51.836;8.330;2022-12-20T11:19:54;12.32;;;4.43;;
30966;SDS011;17649;51.836;8.330;2022-12-20T11:43:34;4.90;;;3.55;;
30966;SDS011;17649;51.836;8.330;2022-12-20T11:47:09;5.72;;;4.03;;
30966;SDS011;17649;51.836;8.330;2022-12-20T11:53:49;5.28;;;3.35;;
30966;SDS011;17649;51.836;8.330;2022-12-20T11:56:54;8.23;;;3.33;;
30966;SDS011;17649;51.836;8.330;2022-12-20T12:00:00;8.63;;;4.70;;
30966;SDS011;17649;51.836;8.330;2022-12-20T12:03:13;6.17;;;2.77;;
30966;SDS011;17649;51.836;8.330;2022-12-20T12:06:30;4.07;;;2.63;;
30966;SDS011;17649;51.836;8.330;2022-12-20T12:09:36;7.45;;;3.72;;
30966;SDS011;17649;51.836;8.330;2022-12-20T12:13:02;6.70;;;3.45;;
30966;SDS011;17649;51.836;8.330;2022-12-20T12:16:11;5.40;;;3.30;;
30966;SDS011;17649;51.836;8.330;2022-12-20T12:19:22;4.50;;;2.88;;
30966;SDS011;17649;51.836;8.330;2022-12-20T12:22:28;4.65;;;2.85;;
30966;SDS011;17649;51.836;8.330;2022-12-20T12:25:33;4.50;;;2.78;;
30966;SDS011;17649;51.836;8.330;2022-12-20T12:28:33;8.05;;;2.97;;
30966;SDS011;17649;51.836;8.330;2022-12-20T12:31:37;7.22;;;2.83;;
30966;SDS011;17649;51.836;8.330;2022-12-20T12:35:02;10.88;;;3.45;;
30966;SDS011;17649;51.836;8.330;2022-12-20T12:44:55;3.90;;;2.60;;
30966;SDS011;17649;51.836;8.330;2022-12-20T12:48:12;5.30;;;2.53;;
30966;SDS011;17649;51.836;8.330;2022-12-20T12:51:23;4.38;;;2.30;;
30966;SDS011;17649;51.836;8.330;2022-12-20T12:54:34;3.63;;;2.65;;
30966;SDS011;17649;51.836;8.330;2022-12-20T12:57:57;5.50;;;2.90;;
30966;SDS011;17649;51.836;8.330;2022-12-20T13:04:30;5.32;;;3.10;;
30966;SDS011;17649;51.836;8.330;2022-12-20T13:07:56;5.38;;;2.75;;
30966;SDS011;17649;51.836;8.330;2022-12-20T13:10:58;4.80;;;2.85;;
30966;SDS011;17649;51.836;8.330;2022-12-20T13:17:39;10.63;;;3.20;;
30966;SDS011;17649;51.836;8.330;2022-12-20T13:21:15;7.40;;;3.63;;
30966;SDS011;17649;51.836;8.330;2022-12-20T13:24:37;6.07;;;2.95;;
30966;SDS011;17649;51.836;8.330;2022-12-20T13:34:39;6.00;;;2.80;;
30966;SDS011;17649;51.836;8.330;2022-12-20T13:41:16;7.50;;;3.25;;
30966;SDS011;17649;51.836;8.330;2022-12-20T13:44:38;10.93;;;3.13;;
30966;SDS011;17649;51.836;8.330;2022-12-20T13:47:48;4.70;;;3.70;;
30966;SDS011;17649;51.836;8.330;2022-12-20T13:51:00;5.13;;;3.17;;
30966;SDS011;17649;51.836;8.330;2022-12-20T13:54:05;5.82;;;3.03;;
30966;SDS011;17649;51.836;8.330;2022-12-20T14:00:17;5.97;;;3.45;;
30966;SDS011;17649;51.836;8.330;2022-12-20T14:03:28;9.35;;;3.83;;
30966;SDS011;17649;51.836;8.330;2022-12-20T14:06:49;4.78;;;3.33;;
30966;SDS011;17649;51.836;8.330;2022-12-20T14:09:57;5.70;;;3.03;;
30966;SDS011;17649;51.836;8.330;2022-12-20T14:13:18;8.20;;;3.20;;
30966;SDS011;17649;51.836;8.330;2022-12-20T14:16:25;9.10;;;3.20;;
30966;SDS011;17649;51.836;8.330;2022-12-20T14:19:35;9.25;;;3.45;;
30966;SDS011;17649;51.836;8.330;2022-12-20T14:22:36;5.68;;;2.90;;
30966;SDS011;17649;51.836;8.330;2022-12-20T14:25:56;8.20;;;3.10;;
30966;SDS011;17649;51.836;8.330;2022-12-20T14:29:00;6.28;;;3.80;;
30966;SDS011;17649;51.836;8.330;2022-12-20T14:32:18;8.60;;;3.28;;
30966;SDS011;17649;51.836;8.330;2022-12-20T14:35:30;5.85;;;3.53;;
30966;SDS011;17649;51.836;8.330;2022-12-20T14:38:30;11.65;;;3.78;;
30966;SDS011;17649;51.836;8.330;2022-12-20T14:41:42;7.75;;;3.85;;
30966;SDS011;17649;51.836;8.330;2022-12-20T14:44:43;5.68;;;3.35;;
30966;SDS011;17649;51.836;8.330;2022-12-20T14:47:59;4.43;;;3.17;;
30966;SDS011;17649;51.836;8.330;2022-12-20T14:51:06;10.07;;;4.10;;
30966;SDS011;17649;51.836;8.330;2022-12-20T14:54:11;7.90;;;4.43;;
30966;SDS011;17649;51.836;8.330;2022-12-20T15:00:37;9.55;;;4.22;;
30966;SDS011;17649;51.836;8.330;2022-12-20T15:03:59;13.50;;;3.97;;
30966;SDS011;17649;51.836;8.330;2022-12-20T15:07:31;7.53;;;4.57;;
30966;SDS011;17649;51.836;8.330;2022-12-20T15:10:42;10.35;;;4.72;;
30966;SDS011;17649;51.836;8.330;2022-12-20T15:30:37;11.35;;;7.15;;
30966;SDS011;17649;51.836;8.330;2022-12-20T16:01:42;17.83;;;8.93;;
30966;SDS011;17649;51.836;8.330;2022-12-20T16:05:10;21.55;;;9.05;;
30966;SDS011;17649;51.836;8.330;2022-12-20T16:08:54;20.67;;;11.27;;
30966;SDS011;17649;51.836;8.330;2022-12-20T16:12:50;15.90;;;9.75;;
30966;SDS011;17649;51.836;8.330;2022-12-20T16:19:42;14.50;;;7.88;;
30966;SDS011;17649;51.836;8.330;2022-12-20T16:27:16;18.65;;;8.40;;
30966;SDS011;17649;51.836;8.330;2022-12-20T16:38:13;13.27;;;8.45;;
30966;SDS011;17649;51.836;8.330;2022-12-20T16:41:17;19.13;;;9.38;;
30966;SDS011;17649;51.836;8.330;2022-12-20T16:44:21;15.10;;;8.60;;
30966;SDS011;17649;51.836;8.330;2022-12-20T16:47:22;15.27;;;8.13;;
30966;SDS011;17649;51.836;8.330;2022-12-20T16:50:24;20.92;;;7.93;;
30966;SDS011;17649;51.836;8.330;2022-12-20T16:53:26;15.52;;;8.40;;
30966;SDS011;17649;51.836;8.330;2022-12-20T16:56:27;21.80;;;11.52;;
30966;SDS011;17649;51.836;8.330;2022-12-20T16:59:29;20.25;;;8.88;;
30966;SDS011;17649;51.836;8.330;2022-12-20T17:02:32;17.17;;;9.85;;
30966;SDS011;17649;51.836;8.330;2022-12-20T17:05:34;18.98;;;11.32;;
30966;SDS011;17649;51.836;8.330;2022-12-20T17:11:36;19.10;;;11.05;;
30966;SDS011;17649;51.836;8.330;2022-12-20T17:14:38;17.17;;;10.97;;
30966;SDS011;17649;51.836;8.330;2022-12-20T17:17:39;17.73;;;10.48;;
30966;SDS011;17649;51.836;8.330;2022-12-20T17:20:40;18.67;;;10.50;;
30966;SDS011;17649;51.836;8.330;2022-12-20T17:23:41;16.08;;;8.95;;
30966;SDS011;17649;51.836;8.330;2022-12-20T17:26:42;12.88;;;7.88;;
30966;SDS011;17649;51.836;8.330;2022-12-20T17:29:44;17.00;;;7.85;;
30966;SDS011;17649;51.836;8.330;2022-12-20T17:32:45;13.20;;;8.45;;
30966;SDS011;17649;51.836;8.330;2022-12-20T17:35:47;16.73;;;8.23;;
30966;SDS011;17649;51.836;8.330;2022-12-20T17:38:48;19.43;;;9.17;;
30966;SDS011;17649;51.836;8.330;2022-12-20T17:41:50;15.80;;;9.87;;
30966;SDS011;17649;51.836;8.330;2022-12-20T17:44:53;12.40;;;8.38;;
30966;SDS011;17649;51.836;8.330;2022-12-20T17:47:55;13.02;;;9.80;;
30966;SDS011;17649;51.836;8.330;2022-12-20T17:50:57;19.42;;;10.05;;
30966;SDS011;17649;51.836;8.330;2022-12-20T17:54:00;19.13;;;11.55;;
30966;SDS011;17649;51.836;8.330;2022-12-20T17:57:02;17.85;;;11.75;;
30966;SDS011;17649;51.836;8.330;2022-12-20T18:03:17;18.38;;;10.43;;
30966;SDS011;17649;51.836;8.330;2022-12-20T18:06:19;18.90;;;11.10;;
30966;SDS011;17649;51.836;8.330;2022-12-20T18:09:20;18.00;;;10.35;;
30966;SDS011;17649;51.836;8.330;2022-12-20T18:12:22;22.88;;;12.45;;
30966;SDS011;17649;51.836;8.330;2022-12-20T18:15:23;21.60;;;12.70;;
30966;SDS011;17649;51.836;8.330;2022-12-20T18:18:25;22.67;;;13.27;;
30966;SDS011;17649;51.836;8.330;2022-12-20T18:21:28;21.35;;;12.15;;
30966;SDS011;17649;51.836;8.330;2022-12-20T18:24:30;20.60;;;11.48;;
30966;SDS011;17649;51.836;8.330;2022-12-20T18:27:30;13.40;;;10.05;;
30966;SDS011;17649;51.836;8.330;2022-12-20T18:30:35;16.63;;;11.50;;
30966;SDS011;17649;51.836;8.330;2022-12-20T18:33:38;17.33;;;10.18;;
30966;SDS011;17649;51.836;8.330;2022-12-20T18:36:39;14.68;;;9.63;;
30966;SDS011;17649;51.836;8.330;2022-12-20T18:39:41;15.95;;;9.30;;
30966;SDS011;17649;51.836;8.330;2022-12-20T18:42:42;20.40;;;9.60;;
30966;SDS011;17649;51.836;8.330;2022-12-20T18:45:44;17.48;;;9.35;;
30966;SDS011;17649;51.836;8.330;2022-12-20T18:48:45;13.43;;;8.83;;
30966;SDS011;17649;51.836;8.330;2022-12-20T18:51:47;18.58;;;9.48;;
30966;SDS011;17649;51.836;8.330;2022-12-20T18:54:48;15.05;;;9.80;;
30966;SDS011;17649;51.836;8.330;2022-12-20T18:58:03;20.50;;;10.73;;
30966;SDS011;17649;51.836;8.330;2022-12-20T19:01:12;16.00;;;9.80;;
30966;SDS011;17649;51.836;8.330;2022-12-20T19:04:17;16.45;;;9.88;;
30966;SDS011;17649;51.836;8.330;2022-12-20T19:07:18;20.55;;;9.63;;
30966;SDS011;17649;51.836;8.330;2022-12-20T19:10:19;14.82;;;9.63;;
30966;SDS011;17649;51.836;8.330;2022-12-20T19:13:21;15.63;;;9.90;;
30966;SDS011;17649;51.836;8.330;2022-12-20T19:16:23;18.83;;;8.73;;
30966;SDS011;17649;51.836;8.330;2022-12-20T19:19:27;18.25;;;9.88;;
30966;SDS011;17649;51.836;8.330;2022-12-20T19:22:27;14.18;;;8.48;;
30966;SDS011;17649;51.836;8.330;2022-12-20T19:25:31;19.67;;;11.40;;
30966;SDS011;17649;51.836;8.330;2022-12-20T19:28:34;18.02;;;10.82;;
30966;SDS011;17649;51.836;8.330;2022-12-20T19:31:35;15.18;;;10.30;;
30966;SDS011;17649;51.836;8.330;2022-12-20T19:34:36;17.23;;;10.02;;
30966;SDS011;17649;51.836;8.330;2022-12-20T19:37:38;17.20;;;10.20;;
30966;SDS011;17649;51.836;8.330;2022-12-20T19:40:38;20.88;;;9.95;;
30966;SDS011;17649;51.836;8.330;2022-12-20T19:43:40;14.70;;;9.67;;
30966;SDS011;17649;51.836;8.330;2022-12-20T19:46:42;14.63;;;8.52;;
30966;SDS011;17649;51.836;8.330;2022-12-20T19:49:43;12.38;;;8.68;;
30966;SDS011;17649;51.836;8.330;2022-12-20T19:52:44;25.65;;;13.50;;
30966;SDS011;17649;51.836;8.330;2022-12-20T19:55:50;16.48;;;10.85;;
30966;SDS011;17649;51.836;8.330;2022-12-20T19:58:53;18.48;;;11.18;;
30966;SDS011;17649;51.836;8.330;2022-12-20T20:01:54;17.30;;;10.98;;
30966;SDS011;17649;51.836;8.330;2022-12-20T20:04:56;20.23;;;10.80;;
30966;SDS011;17649;51.836;8.330;2022-12-20T20:07:57;19.10;;;11.20;;
30966;SDS011;17649;51.836;8.330;2022-12-20T20:10:58;25.15;;;13.25;;
30966;SDS011;17649;51.836;8.330;2022-12-20T20:17:02;19.02;;;11.82;;
30966;SDS011;17649;51.836;8.330;2022-12-20T20:20:06;28.42;;;16.50;;
30966;SDS011;17649;51.836;8.330;2022-12-20T20:23:08;20.13;;;11.98;;
30966;SDS011;17649;51.836;8.330;2022-12-20T20:26:11;24.70;;;12.60;;
30966;SDS011;17649;51.836;8.330;2022-12-20T20:29:15;20.88;;;13.43;;
30966;SDS011;17649;51.836;8.330;2022-12-20T20:32:15;22.05;;;12.98;;
30966;SDS011;17649;51.836;8.330;2022-12-20T20:35:17;25.13;;;12.88;;
30966;SDS011;17649;51.836;8.330;2022-12-20T20:38:18;31.85;;;14.07;;
30966;SDS011;17649;51.836;8.330;2022-12-20T20:41:19;23.15;;;12.35;;
30966;SDS011;17649;51.836;8.330;2022-12-20T20:44:20;24.00;;;12.13;;
30966;SDS011;17649;51.836;8.330;2022-12-20T20:47:25;21.35;;;12.13;;
30966;SDS011;17649;51.836;8.330;2022-12-20T20:50:26;19.05;;;11.40;;
30966;SDS011;17649;51.836;8.330;2022-12-20T20:53:30;17.00;;;10.02;;
30966;SDS011;17649;51.836;8.330;2022-12-20T20:56:31;17.52;;;10.45;;
30966;SDS011;17649;51.836;8.330;2022-12-20T20:59:33;23.20;;;10.18;;
30966;SDS011;17649;51.836;8.330;2022-12-20T21:02:35;23.95;;;12.05;;
30966;SDS011;17649;51.836;8.330;2022-12-20T21:05:36;22.27;;;11.95;;
30966;SDS011;17649;51.836;8.330;2022-12-20T21:08:37;24.48;;;11.73;;
30966;SDS011;17649;51.836;8.330;2022-12-20T21:11:38;16.38;;;10.45;;
30966;SDS011;17649;51.836;8.330;2022-12-20T21:14:40;17.80;;;10.90;;
30966;SDS011;17649;51.836;8.330;2022-12-20T21:17:41;18.45;;;10.15;;
30966;SDS011;17649;51.836;8.330;2022-12-20T21:20:42;28.27;;;12.07;;
30966;SDS011;17649;51.836;8.330;2022-12-20T21:23:44;21.73;;;11.02;;
30966;SDS011;17649;51.836;8.330;2022-12-20T21:26:45;19.63;;;11.80;;
30966;SDS011;17649;51.836;8.330;2022-12-20T21:29:47;19.67;;;11.90;;
30966;SDS011;17649;51.836;8.330;2022-12-20T21:32:51;24.00;;;12.68;;
30966;SDS011;17649;51.836;8.330;2022-12-20T21:39:03;25.65;;;11.63;;
30966;SDS011;17649;51.836;8.330;2022-12-20T21:42:04;17.27;;;11.48;;
30966;SDS011;17649;51.836;8.330;2022-12-20T21:45:05;18.45;;;10.25;;
30966;SDS011;17649;51.836;8.330;2022-12-20T21:48:07;17.55;;;9.25;;
30966;SDS011;17649;51.836;8.330;2022-12-20T21:51:08;18.10;;;9.35;;
30966;SDS011;17649;51.836;8.330;2022-12-20T21:54:59;18.20;;;9.30;;
30966;SDS011;17649;51.836;8.330;2022-12-20T22:10:28;14.43;;;9.05;;
30966;SDS011;17649;51.836;8.330;2022-12-20T22:14:42;17.27;;;10.60;;
30966;SDS011;17649;51.836;8.330;2022-12-20T22:22:48;22.55;;;10.90;;
30966;SDS011;17649;51.836;8.330;2022-12-20T22:26:56;28.27;;;11.05;;